sensor_id;sensor_type;location;lat;lon;timestamp;P1;durP1;ratioP1;P2;durP2;ratioP2
8183;SDS011;4133;48.752;9.088;2023-03-01T00:00:40;12.00;;;6.93;;
8183;SDS011;4133;48.752;9.088;2023-03-01T00:03:06;13.07;;;7.60;;
8183;SDS011;4133;48.752;9.088;2023-03-01T00:05:32;12.70;;;7.57;;
8183;SDS011;4133;48.752;9.088;2023-03-01T00:07:58;13.23;;;8.10;;
8183;SDS011;4133;48.752;9.088;2023-03-01T00:10:24;10.50;;;6.60;;
8183;SDS011;4133;48.752;9.088;2023-03-01T00:12:51;11.87;;;7.53;;
8183;SDS011;4133;48.752;9.088;2023-03-01T00:15:17;11.33;;;6.53;;
8183;SDS011;4133;48.752;9.088;2023-03-01T00:17:43;13.00;;;7.70;;
8183;SDS011;4133;48.752;9.088;2023-03-01T00:20:09;10.33;;;6.53;;
8183;SDS011;4133;48.752;9.088;2023-03-01T00:22:36;12.90;;;6.97;;
8183;SDS011;4133;48.752;9.088;2023-03-01T00:28:06;10.80;;;7.20;;
8183;SDS011;4133;48.752;9.088;2023-03-01T00:30:32;12.27;;;8.47;;
8183;SDS011;4133;48.752;9.088;2023-03-01T00:32:58;12.93;;;7.60;;
8183;SDS011;4133;48.752;9.088;2023-03-01T00:35:24;12.27;;;6.90;;
8183;SDS011;4133;48.752;9.088;2023-03-01T00:37:50;11.13;;;6.80;;
8183;SDS011;4133;48.752;9.088;2023-03-01T00:40:28;11.60;;;6.93;;
8183;SDS011;4133;48.752;9.088;2023-03-01T00:42:55;13.13;;;7.10;;
8183;SDS011;4133;48.752;9.088;2023-03-01T00:45:21;10.70;;;7.00;;
8183;SDS011;4133;48.752;9.088;2023-03-01T00:47:48;9.60;;;6.77;;
8183;SDS011;4133;48.752;9.088;2023-03-01T00:50:15;10.50;;;7.10;;
8183;SDS011;4133;48.752;9.088;2023-03-01T00:52:41;11.73;;;7.13;;
8183;SDS011;4133;48.752;9.088;2023-03-01T00:55:07;10.63;;;7.20;;
8183;SDS011;4133;48.752;9.088;2023-03-01T00:57:33;12.83;;;8.00;;
8183;SDS011;4133;48.752;9.088;2023-03-01T00:59:59;12.10;;;7.43;;
8183;SDS011;4133;48.752;9.088;2023-03-01T01:02:25;12.97;;;7.73;;
8183;SDS011;4133;48.752;9.088;2023-03-01T01:04:51;13.17;;;6.80;;
8183;SDS011;4133;48.752;9.088;2023-03-01T01:07:17;10.47;;;6.93;;
8183;SDS011;4133;48.752;9.088;2023-03-01T01:09:45;11.17;;;7.17;;
8183;SDS011;4133;48.752;9.088;2023-03-01T01:12:11;13.40;;;7.57;;
8183;SDS011;4133;48.752;9.088;2023-03-01T01:14:37;12.60;;;8.03;;
8183;SDS011;4133;48.752;9.088;2023-03-01T01:17:03;10.70;;;7.23;;
8183;SDS011;4133;48.752;9.088;2023-03-01T01:19:29;12.43;;;7.73;;
8183;SDS011;4133;48.752;9.088;2023-03-01T01:21:55;11.43;;;7.83;;
8183;SDS011;4133;48.752;9.088;2023-03-01T01:27:24;12.13;;;7.40;;
8183;SDS011;4133;48.752;9.088;2023-03-01T01:29:52;12.03;;;7.67;;
8183;SDS011;4133;48.752;9.088;2023-03-01T01:32:18;13.67;;;7.57;;
8183;SDS011;4133;48.752;9.088;2023-03-01T01:34:44;11.80;;;8.17;;
8183;SDS011;4133;48.752;9.088;2023-03-01T01:37:11;13.70;;;8.23;;
8183;SDS011;4133;48.752;9.088;2023-03-01T01:39:37;12.00;;;7.60;;
8183;SDS011;4133;48.752;9.088;2023-03-01T01:42:03;12.93;;;7.77;;
8183;SDS011;4133;48.752;9.088;2023-03-01T01:44:29;13.23;;;7.90;;
8183;SDS011;4133;48.752;9.088;2023-03-01T01:47:03;14.33;;;7.97;;
8183;SDS011;4133;48.752;9.088;2023-03-01T01:52:04;13.90;;;8.03;;
8183;SDS011;4133;48.752;9.088;2023-03-01T01:54:34;11.77;;;7.50;;
8183;SDS011;4133;48.752;9.088;2023-03-01T01:57:06;13.07;;;7.70;;
8183;SDS011;4133;48.752;9.088;2023-03-01T01:59:33;12.70;;;7.67;;
8183;SDS011;4133;48.752;9.088;2023-03-01T02:02:00;13.13;;;7.47;;
8183;SDS011;4133;48.752;9.088;2023-03-01T02:04:27;12.27;;;8.27;;
8183;SDS011;4133;48.752;9.088;2023-03-01T02:07:04;14.73;;;9.10;;
8183;SDS011;4133;48.752;9.088;2023-03-01T02:09:30;17.07;;;9.73;;
8183;SDS011;4133;48.752;9.088;2023-03-01T02:11:57;13.70;;;9.20;;
8183;SDS011;4133;48.752;9.088;2023-03-01T02:14:24;14.80;;;8.80;;
8183;SDS011;4133;48.752;9.088;2023-03-01T02:16:50;15.87;;;9.50;;
8183;SDS011;4133;48.752;9.088;2023-03-01T02:19:59;14.13;;;8.80;;
8183;SDS011;4133;48.752;9.088;2023-03-01T02:22:18;14.97;;;8.47;;
8183;SDS011;4133;48.752;9.088;2023-03-01T02:30:19;14.87;;;8.80;;
8183;SDS011;4133;48.752;9.088;2023-03-01T02:32:46;13.57;;;8.77;;
8183;SDS011;4133;48.752;9.088;2023-03-01T02:35:13;16.53;;;9.07;;
8183;SDS011;4133;48.752;9.088;2023-03-01T02:37:41;15.47;;;9.97;;
8183;SDS011;4133;48.752;9.088;2023-03-01T02:40:08;16.70;;;10.57;;
8183;SDS011;4133;48.752;9.088;2023-03-01T02:42:40;17.40;;;9.90;;
8183;SDS011;4133;48.752;9.088;2023-03-01T02:45:08;16.43;;;9.93;;
8183;SDS011;4133;48.752;9.088;2023-03-01T02:47:35;14.07;;;9.17;;
8183;SDS011;4133;48.752;9.088;2023-03-01T02:50:01;17.50;;;10.13;;
8183;SDS011;4133;48.752;9.088;2023-03-01T02:52:37;16.77;;;9.80;;
8183;SDS011;4133;48.752;9.088;2023-03-01T02:55:13;15.43;;;9.57;;
8183;SDS011;4133;48.752;9.088;2023-03-01T02:57:40;14.53;;;9.50;;
8183;SDS011;4133;48.752;9.088;2023-03-01T03:00:09;15.30;;;9.47;;
8183;SDS011;4133;48.752;9.088;2023-03-01T03:02:43;14.57;;;9.70;;
8183;SDS011;4133;48.752;9.088;2023-03-01T03:05:17;17.00;;;10.17;;
8183;SDS011;4133;48.752;9.088;2023-03-01T03:07:44;16.23;;;9.70;;
8183;SDS011;4133;48.752;9.088;2023-03-01T03:10:12;16.50;;;9.93;;
8183;SDS011;4133;48.752;9.088;2023-03-01T03:12:38;18.53;;;9.90;;
8183;SDS011;4133;48.752;9.088;2023-03-01T03:15:05;17.70;;;10.57;;
8183;SDS011;4133;48.752;9.088;2023-03-01T03:17:36;16.20;;;9.67;;
8183;SDS011;4133;48.752;9.088;2023-03-01T03:20:03;16.30;;;9.57;;
8183;SDS011;4133;48.752;9.088;2023-03-01T03:22:30;16.07;;;9.87;;
8183;SDS011;4133;48.752;9.088;2023-03-01T03:31:05;17.23;;;10.70;;
8183;SDS011;4133;48.752;9.088;2023-03-01T03:33:31;22.53;;;11.77;;
8183;SDS011;4133;48.752;9.088;2023-03-01T03:35:57;20.20;;;12.00;;
8183;SDS011;4133;48.752;9.088;2023-03-01T03:38:23;18.90;;;11.20;;
8183;SDS011;4133;48.752;9.088;2023-03-01T03:40:59;21.80;;;12.47;;
8183;SDS011;4133;48.752;9.088;2023-03-01T03:43:28;19.80;;;11.53;;
8183;SDS011;4133;48.752;9.088;2023-03-01T03:45:54;20.57;;;11.83;;
8183;SDS011;4133;48.752;9.088;2023-03-01T03:48:22;16.73;;;10.90;;
8183;SDS011;4133;48.752;9.088;2023-03-01T03:50:49;17.63;;;11.43;;
8183;SDS011;4133;48.752;9.088;2023-03-01T03:53:15;19.67;;;11.37;;
8183;SDS011;4133;48.752;9.088;2023-03-01T03:55:41;16.80;;;11.20;;
8183;SDS011;4133;48.752;9.088;2023-03-01T03:58:09;18.17;;;10.83;;
8183;SDS011;4133;48.752;9.088;2023-03-01T04:00:40;16.43;;;10.50;;
8183;SDS011;4133;48.752;9.088;2023-03-01T04:03:06;16.30;;;10.57;;
8183;SDS011;4133;48.752;9.088;2023-03-01T04:05:32;17.13;;;10.37;;
8183;SDS011;4133;48.752;9.088;2023-03-01T04:07:58;15.10;;;9.80;;
8183;SDS011;4133;48.752;9.088;2023-03-01T04:10:28;17.27;;;10.77;;
8183;SDS011;4133;48.752;9.088;2023-03-01T04:12:54;19.07;;;11.57;;
8183;SDS011;4133;48.752;9.088;2023-03-01T04:15:24;16.43;;;10.40;;
8183;SDS011;4133;48.752;9.088;2023-03-01T04:17:51;16.70;;;11.00;;
8183;SDS011;4133;48.752;9.088;2023-03-01T04:20:18;16.40;;;10.80;;
8183;SDS011;4133;48.752;9.088;2023-03-01T04:22:49;16.13;;;10.80;;
8183;SDS011;4133;48.752;9.088;2023-03-01T04:28:20;14.73;;;10.13;;
8183;SDS011;4133;48.752;9.088;2023-03-01T04:30:46;16.73;;;10.73;;
8183;SDS011;4133;48.752;9.088;2023-03-01T04:33:13;15.90;;;11.17;;
8183;SDS011;4133;48.752;9.088;2023-03-01T04:35:39;15.77;;;10.50;;
8183;SDS011;4133;48.752;9.088;2023-03-01T04:38:05;16.50;;;10.87;;
8183;SDS011;4133;48.752;9.088;2023-03-01T04:40:31;16.77;;;11.47;;
8183;SDS011;4133;48.752;9.088;2023-03-01T04:42:57;17.13;;;11.53;;
8183;SDS011;4133;48.752;9.088;2023-03-01T04:45:23;17.70;;;10.93;;
8183;SDS011;4133;48.752;9.088;2023-03-01T04:47:50;16.70;;;10.77;;
8183;SDS011;4133;48.752;9.088;2023-03-01T04:50:17;16.57;;;10.90;;
8183;SDS011;4133;48.752;9.088;2023-03-01T04:52:45;17.03;;;11.33;;
8183;SDS011;4133;48.752;9.088;2023-03-01T04:55:11;17.13;;;11.20;;
8183;SDS011;4133;48.752;9.088;2023-03-01T04:57:37;15.23;;;10.57;;
8183;SDS011;4133;48.752;9.088;2023-03-01T05:00:04;16.27;;;10.70;;
8183;SDS011;4133;48.752;9.088;2023-03-01T05:02:45;19.40;;;12.27;;
8183;SDS011;4133;48.752;9.088;2023-03-01T05:08:15;17.93;;;11.30;;
8183;SDS011;4133;48.752;9.088;2023-03-01T05:10:46;18.43;;;11.00;;
8183;SDS011;4133;48.752;9.088;2023-03-01T05:13:13;15.20;;;10.77;;
8183;SDS011;4133;48.752;9.088;2023-03-01T05:15:45;18.30;;;11.87;;
8183;SDS011;4133;48.752;9.088;2023-03-01T05:18:11;20.33;;;12.83;;
8183;SDS011;4133;48.752;9.088;2023-03-01T05:20:37;17.40;;;11.93;;
8183;SDS011;4133;48.752;9.088;2023-03-01T05:23:04;18.13;;;11.30;;
8183;SDS011;4133;48.752;9.088;2023-03-01T05:25:30;18.20;;;11.50;;
8183;SDS011;4133;48.752;9.088;2023-03-01T05:27:58;19.83;;;11.90;;
8183;SDS011;4133;48.752;9.088;2023-03-01T05:30:24;18.10;;;10.70;;
8183;SDS011;4133;48.752;9.088;2023-03-01T05:32:50;17.30;;;11.70;;
8183;SDS011;4133;48.752;9.088;2023-03-01T05:38:13;18.90;;;11.63;;
8183;SDS011;4133;48.752;9.088;2023-03-01T05:40:40;16.97;;;11.63;;
8183;SDS011;4133;48.752;9.088;2023-03-01T05:43:06;17.87;;;11.23;;
8183;SDS011;4133;48.752;9.088;2023-03-01T05:45:32;18.97;;;12.07;;
8183;SDS011;4133;48.752;9.088;2023-03-01T05:47:58;18.87;;;11.53;;
8183;SDS011;4133;48.752;9.088;2023-03-01T05:50:25;16.33;;;11.53;;
8183;SDS011;4133;48.752;9.088;2023-03-01T05:52:55;20.33;;;12.17;;
8183;SDS011;4133;48.752;9.088;2023-03-01T05:55:22;18.73;;;11.67;;
8183;SDS011;4133;48.752;9.088;2023-03-01T05:57:48;22.20;;;12.67;;
8183;SDS011;4133;48.752;9.088;2023-03-01T06:00:16;19.07;;;11.87;;
8183;SDS011;4133;48.752;9.088;2023-03-01T06:02:42;20.57;;;11.83;;
8183;SDS011;4133;48.752;9.088;2023-03-01T06:05:09;19.67;;;11.90;;
8183;SDS011;4133;48.752;9.088;2023-03-01T06:07:35;18.50;;;12.20;;
8183;SDS011;4133;48.752;9.088;2023-03-01T06:10:02;18.13;;;11.93;;
8183;SDS011;4133;48.752;9.088;2023-03-01T06:12:32;18.23;;;11.53;;
8183;SDS011;4133;48.752;9.088;2023-03-01T06:14:58;20.03;;;11.73;;
8183;SDS011;4133;48.752;9.088;2023-03-01T06:17:24;20.37;;;12.40;;
8183;SDS011;4133;48.752;9.088;2023-03-01T06:19:50;19.90;;;11.40;;
8183;SDS011;4133;48.752;9.088;2023-03-01T06:22:16;19.30;;;11.93;;
8183;SDS011;4133;48.752;9.088;2023-03-01T06:24:42;18.80;;;12.10;;
8183;SDS011;4133;48.752;9.088;2023-03-01T06:27:08;18.00;;;11.63;;
8183;SDS011;4133;48.752;9.088;2023-03-01T06:29:34;19.80;;;12.73;;
8183;SDS011;4133;48.752;9.088;2023-03-01T06:32:00;20.33;;;12.00;;
8183;SDS011;4133;48.752;9.088;2023-03-01T06:37:30;19.57;;;11.97;;
8183;SDS011;4133;48.752;9.088;2023-03-01T06:39:56;19.93;;;12.30;;
8183;SDS011;4133;48.752;9.088;2023-03-01T06:42:22;20.03;;;11.93;;
8183;SDS011;4133;48.752;9.088;2023-03-01T06:44:47;18.03;;;11.73;;
8183;SDS011;4133;48.752;9.088;2023-03-01T06:47:13;19.50;;;12.40;;
8183;SDS011;4133;48.752;9.088;2023-03-01T06:49:40;20.93;;;11.47;;
8183;SDS011;4133;48.752;9.088;2023-03-01T06:52:06;17.57;;;11.00;;
8183;SDS011;4133;48.752;9.088;2023-03-01T06:54:32;19.23;;;12.33;;
8183;SDS011;4133;48.752;9.088;2023-03-01T06:56:58;19.63;;;11.73;;
8183;SDS011;4133;48.752;9.088;2023-03-01T06:59:24;19.43;;;12.13;;
8183;SDS011;4133;48.752;9.088;2023-03-01T07:01:50;20.53;;;12.83;;
8183;SDS011;4133;48.752;9.088;2023-03-01T07:04:16;19.83;;;12.50;;
8183;SDS011;4133;48.752;9.088;2023-03-01T07:06:42;20.37;;;11.13;;
8183;SDS011;4133;48.752;9.088;2023-03-01T07:09:08;19.73;;;12.10;;
8183;SDS011;4133;48.752;9.088;2023-03-01T07:11:34;22.87;;;12.63;;
8183;SDS011;4133;48.752;9.088;2023-03-01T07:14:00;18.27;;;12.20;;
8183;SDS011;4133;48.752;9.088;2023-03-01T07:16:26;19.53;;;11.87;;
8183;SDS011;4133;48.752;9.088;2023-03-01T07:18:52;20.33;;;12.10;;
8183;SDS011;4133;48.752;9.088;2023-03-01T07:21:18;18.37;;;12.57;;
8183;SDS011;4133;48.752;9.088;2023-03-01T07:23:44;20.47;;;12.17;;
8183;SDS011;4133;48.752;9.088;2023-03-01T07:26:12;18.50;;;11.93;;
8183;SDS011;4133;48.752;9.088;2023-03-01T07:28:38;19.70;;;12.73;;
8183;SDS011;4133;48.752;9.088;2023-03-01T07:31:05;19.93;;;12.53;;
8183;SDS011;4133;48.752;9.088;2023-03-01T07:33:31;20.27;;;12.07;;
8183;SDS011;4133;48.752;9.088;2023-03-01T07:39:01;19.00;;;11.97;;
8183;SDS011;4133;48.752;9.088;2023-03-01T07:41:28;21.20;;;12.40;;
8183;SDS011;4133;48.752;9.088;2023-03-01T07:43:54;19.87;;;12.83;;
8183;SDS011;4133;48.752;9.088;2023-03-01T07:46:20;22.97;;;13.63;;
8183;SDS011;4133;48.752;9.088;2023-03-01T07:48:46;18.43;;;12.57;;
8183;SDS011;4133;48.752;9.088;2023-03-01T07:51:12;22.23;;;13.37;;
8183;SDS011;4133;48.752;9.088;2023-03-01T07:56:11;21.87;;;13.17;;
8183;SDS011;4133;48.752;9.088;2023-03-01T07:58:39;26.80;;;12.93;;
8183;SDS011;4133;48.752;9.088;2023-03-01T08:01:06;19.33;;;12.33;;
8183;SDS011;4133;48.752;9.088;2023-03-01T08:03:32;19.17;;;12.00;;
8183;SDS011;4133;48.752;9.088;2023-03-01T08:05:59;19.07;;;12.27;;
8183;SDS011;4133;48.752;9.088;2023-03-01T08:08:25;19.77;;;13.17;;
8183;SDS011;4133;48.752;9.088;2023-03-01T08:10:51;20.93;;;12.97;;
8183;SDS011;4133;48.752;9.088;2023-03-01T08:13:17;22.53;;;13.70;;
8183;SDS011;4133;48.752;9.088;2023-03-01T08:15:48;21.17;;;13.43;;
8183;SDS011;4133;48.752;9.088;2023-03-01T08:18:14;17.37;;;12.40;;
8183;SDS011;4133;48.752;9.088;2023-03-01T08:20:40;17.67;;;12.43;;
8183;SDS011;4133;48.752;9.088;2023-03-01T08:23:06;20.40;;;13.53;;
8183;SDS011;4133;48.752;9.088;2023-03-01T08:25:32;20.57;;;13.37;;
8183;SDS011;4133;48.752;9.088;2023-03-01T08:27:58;19.00;;;11.97;;
8183;SDS011;4133;48.752;9.088;2023-03-01T08:30:24;22.05;;;16.05;;
8183;SDS011;4133;48.752;9.088;2023-03-01T08:32:50;18.27;;;13.33;;
8183;SDS011;4133;48.752;9.088;2023-03-01T08:35:19;19.90;;;13.47;;
8183;SDS011;4133;48.752;9.088;2023-03-01T08:37:45;17.20;;;12.13;;
8183;SDS011;4133;48.752;9.088;2023-03-01T08:40:12;19.53;;;13.20;;
8183;SDS011;4133;48.752;9.088;2023-03-01T08:42:38;19.57;;;12.83;;
8183;SDS011;4133;48.752;9.088;2023-03-01T08:45:05;18.80;;;12.93;;
8183;SDS011;4133;48.752;9.088;2023-03-01T08:47:31;18.63;;;12.67;;
8183;SDS011;4133;48.752;9.088;2023-03-01T08:49:58;19.10;;;12.37;;
8183;SDS011;4133;48.752;9.088;2023-03-01T08:52:24;19.60;;;12.87;;
8183;SDS011;4133;48.752;9.088;2023-03-01T08:54:51;20.40;;;12.93;;
8183;SDS011;4133;48.752;9.088;2023-03-01T08:57:17;18.37;;;13.10;;
8183;SDS011;4133;48.752;9.088;2023-03-01T08:59:43;19.40;;;13.13;;
8183;SDS011;4133;48.752;9.088;2023-03-01T09:02:11;18.83;;;12.47;;
8183;SDS011;4133;48.752;9.088;2023-03-01T09:04:37;21.63;;;13.40;;
8183;SDS011;4133;48.752;9.088;2023-03-01T09:07:03;17.80;;;12.27;;
8183;SDS011;4133;48.752;9.088;2023-03-01T09:09:29;21.03;;;13.30;;
8183;SDS011;4133;48.752;9.088;2023-03-01T09:11:55;19.70;;;13.70;;
8183;SDS011;4133;48.752;9.088;2023-03-01T09:14:21;19.30;;;12.50;;
8183;SDS011;4133;48.752;9.088;2023-03-01T09:16:48;20.07;;;13.30;;
8183;SDS011;4133;48.752;9.088;2023-03-01T09:19:14;18.13;;;12.80;;
8183;SDS011;4133;48.752;9.088;2023-03-01T09:21:40;18.03;;;12.67;;
8183;SDS011;4133;48.752;9.088;2023-03-01T09:24:08;21.30;;;13.17;;
8183;SDS011;4133;48.752;9.088;2023-03-01T09:26:37;20.20;;;13.07;;
8183;SDS011;4133;48.752;9.088;2023-03-01T09:29:03;17.83;;;12.87;;
8183;SDS011;4133;48.752;9.088;2023-03-01T09:31:29;19.67;;;13.93;;
8183;SDS011;4133;48.752;9.088;2023-03-01T09:33:55;18.53;;;13.03;;
8183;SDS011;4133;48.752;9.088;2023-03-01T09:36:23;21.97;;;12.63;;
8183;SDS011;4133;48.752;9.088;2023-03-01T09:38:50;19.13;;;13.13;;
8183;SDS011;4133;48.752;9.088;2023-03-01T09:46:11;19.87;;;12.60;;
8183;SDS011;4133;48.752;9.088;2023-03-01T09:48:42;19.13;;;13.73;;
8183;SDS011;4133;48.752;9.088;2023-03-01T09:51:12;19.53;;;13.67;;
8183;SDS011;4133;48.752;9.088;2023-03-01T09:53:41;18.43;;;12.60;;
8183;SDS011;4133;48.752;9.088;2023-03-01T10:01:35;21.43;;;13.50;;
8183;SDS011;4133;48.752;9.088;2023-03-01T10:06:36;18.73;;;13.53;;
8183;SDS011;4133;48.752;9.088;2023-03-01T10:09:03;20.60;;;13.50;;
8183;SDS011;4133;48.752;9.088;2023-03-01T10:11:32;18.23;;;12.43;;
8183;SDS011;4133;48.752;9.088;2023-03-01T10:16:46;19.70;;;13.20;;
8183;SDS011;4133;48.752;9.088;2023-03-01T10:19:17;19.03;;;13.40;;
8183;SDS011;4133;48.752;9.088;2023-03-01T10:21:47;18.80;;;12.93;;
8183;SDS011;4133;48.752;9.088;2023-03-01T10:24:14;20.63;;;12.57;;
8183;SDS011;4133;48.752;9.088;2023-03-01T10:26:47;19.03;;;12.33;;
8183;SDS011;4133;48.752;9.088;2023-03-01T10:29:14;18.87;;;12.80;;
8183;SDS011;4133;48.752;9.088;2023-03-01T10:31:47;18.73;;;13.07;;
8183;SDS011;4133;48.752;9.088;2023-03-01T10:34:18;19.30;;;12.57;;
8183;SDS011;4133;48.752;9.088;2023-03-01T10:36:47;18.47;;;12.23;;
8183;SDS011;4133;48.752;9.088;2023-03-01T10:39:17;17.23;;;12.77;;
8183;SDS011;4133;48.752;9.088;2023-03-01T10:41:52;17.40;;;12.27;;
8183;SDS011;4133;48.752;9.088;2023-03-01T10:44:38;16.87;;;12.30;;
8183;SDS011;4133;48.752;9.088;2023-03-01T10:47:05;17.83;;;12.67;;
8183;SDS011;4133;48.752;9.088;2023-03-01T10:49:31;16.80;;;11.77;;
8183;SDS011;4133;48.752;9.088;2023-03-01T10:51:57;17.60;;;12.27;;
8183;SDS011;4133;48.752;9.088;2023-03-01T10:54:36;17.40;;;12.50;;
8183;SDS011;4133;48.752;9.088;2023-03-01T10:57:05;17.83;;;12.27;;
8183;SDS011;4133;48.752;9.088;2023-03-01T10:59:35;17.20;;;12.13;;
8183;SDS011;4133;48.752;9.088;2023-03-01T11:04:30;17.23;;;12.17;;
8183;SDS011;4133;48.752;9.088;2023-03-01T11:07:00;16.87;;;12.07;;
8183;SDS011;4133;48.752;9.088;2023-03-01T11:09:26;16.53;;;12.50;;
8183;SDS011;4133;48.752;9.088;2023-03-01T11:12:02;17.03;;;11.77;;
8183;SDS011;4133;48.752;9.088;2023-03-01T11:14:38;15.23;;;12.00;;
8183;SDS011;4133;48.752;9.088;2023-03-01T11:19:37;17.27;;;11.70;;
8183;SDS011;4133;48.752;9.088;2023-03-01T11:24:58;16.00;;;11.50;;
8183;SDS011;4133;48.752;9.088;2023-03-01T11:27:25;15.40;;;11.20;;
8183;SDS011;4133;48.752;9.088;2023-03-01T11:30:02;16.93;;;12.07;;
8183;SDS011;4133;48.752;9.088;2023-03-01T11:32:34;16.33;;;11.83;;
8183;SDS011;4133;48.752;9.088;2023-03-01T11:38:24;16.57;;;11.80;;
8183;SDS011;4133;48.752;9.088;2023-03-01T11:41:02;16.13;;;11.53;;
8183;SDS011;4133;48.752;9.088;2023-03-01T11:48:59;17.73;;;11.77;;
8183;SDS011;4133;48.752;9.088;2023-03-01T12:02:19;15.07;;;11.60;;
8183;SDS011;4133;48.752;9.088;2023-03-01T12:15:38;14.03;;;11.47;;
8183;SDS011;4133;48.752;9.088;2023-03-01T12:25:43;14.90;;;12.00;;
8183;SDS011;4133;48.752;9.088;2023-03-01T12:49:48;16.50;;;10.90;;
8183;SDS011;4133;48.752;9.088;2023-03-01T12:57:54;13.93;;;10.87;;
8183;SDS011;4133;48.752;9.088;2023-03-01T13:00:40;12.33;;;10.20;;
8183;SDS011;4133;48.752;9.088;2023-03-01T13:10:33;15.53;;;9.63;;
8183;SDS011;4133;48.752;9.088;2023-03-01T13:13:02;13.27;;;10.03;;
8183;SDS011;4133;48.752;9.088;2023-03-01T13:15:29;14.80;;;10.93;;
8183;SDS011;4133;48.752;9.088;2023-03-01T13:17:59;12.87;;;10.37;;
8183;SDS011;4133;48.752;9.088;2023-03-01T13:20:33;15.23;;;10.50;;
8183;SDS011;4133;48.752;9.088;2023-03-01T13:23:13;11.90;;;9.80;;
8183;SDS011;4133;48.752;9.088;2023-03-01T13:33:47;10.77;;;9.27;;
8183;SDS011;4133;48.752;9.088;2023-03-01T13:39:27;11.80;;;9.60;;
8183;SDS011;4133;48.752;9.088;2023-03-01T13:41:56;11.95;;;10.00;;
8183;SDS011;4133;48.752;9.088;2023-03-01T13:46:49;12.88;;;10.10;;
8183;SDS011;4133;48.752;9.088;2023-03-01T13:49:16;14.33;;;11.70;;
8183;SDS011;4133;48.752;9.088;2023-03-01T13:51:46;12.63;;;10.33;;
8183;SDS011;4133;48.752;9.088;2023-03-01T14:00:24;13.87;;;11.20;;
8183;SDS011;4133;48.752;9.088;2023-03-01T14:05:36;18.98;;;11.43;;
8183;SDS011;4133;48.752;9.088;2023-03-01T14:08:03;14.77;;;11.40;;
8183;SDS011;4133;48.752;9.088;2023-03-01T14:10:31;16.10;;;11.80;;
8183;SDS011;4133;48.752;9.088;2023-03-01T14:13:10;13.55;;;12.02;;
8183;SDS011;4133;48.752;9.088;2023-03-01T14:15:45;13.30;;;11.23;;
8183;SDS011;4133;48.752;9.088;2023-03-01T14:20:41;19.15;;;11.43;;
8183;SDS011;4133;48.752;9.088;2023-03-01T14:23:11;15.35;;;12.02;;
8183;SDS011;4133;48.752;9.088;2023-03-01T14:25:38;13.60;;;11.25;;
8183;SDS011;4133;48.752;9.088;2023-03-01T14:28:18;15.88;;;12.00;;
8183;SDS011;4133;48.752;9.088;2023-03-01T14:30:49;16.20;;;11.73;;
8183;SDS011;4133;48.752;9.088;2023-03-01T14:33:19;15.48;;;11.82;;
8183;SDS011;4133;48.752;9.088;2023-03-01T14:38:49;14.23;;;11.60;;
8183;SDS011;4133;48.752;9.088;2023-03-01T14:41:17;15.03;;;12.20;;
8183;SDS011;4133;48.752;9.088;2023-03-01T14:43:45;15.17;;;12.20;;
8183;SDS011;4133;48.752;9.088;2023-03-01T14:48:45;15.57;;;11.73;;
8183;SDS011;4133;48.752;9.088;2023-03-01T14:51:11;18.07;;;12.33;;
8183;SDS011;4133;48.752;9.088;2023-03-01T14:53:37;18.07;;;12.37;;
8183;SDS011;4133;48.752;9.088;2023-03-01T14:56:03;16.55;;;12.63;;
8183;SDS011;4133;48.752;9.088;2023-03-01T14:58:31;16.73;;;12.30;;
8183;SDS011;4133;48.752;9.088;2023-03-01T15:00:59;17.07;;;12.07;;
8183;SDS011;4133;48.752;9.088;2023-03-01T15:05:52;15.30;;;12.10;;
8183;SDS011;4133;48.752;9.088;2023-03-01T15:08:22;16.17;;;13.23;;
8183;SDS011;4133;48.752;9.088;2023-03-01T15:10:56;15.87;;;12.70;;
8183;SDS011;4133;48.752;9.088;2023-03-01T15:13:23;15.70;;;11.40;;
8183;SDS011;4133;48.752;9.088;2023-03-01T15:15:50;17.77;;;12.13;;
8183;SDS011;4133;48.752;9.088;2023-03-01T15:20:43;17.43;;;12.70;;
8183;SDS011;4133;48.752;9.088;2023-03-01T15:23:22;16.37;;;12.83;;
8183;SDS011;4133;48.752;9.088;2023-03-01T15:25:49;21.50;;;13.33;;
8183;SDS011;4133;48.752;9.088;2023-03-01T15:28:21;16.13;;;12.30;;
8183;SDS011;4133;48.752;9.088;2023-03-01T15:30:52;18.63;;;13.00;;
8183;SDS011;4133;48.752;9.088;2023-03-01T15:38:56;17.87;;;12.70;;
8183;SDS011;4133;48.752;9.088;2023-03-01T15:44:14;19.83;;;12.20;;
8183;SDS011;4133;48.752;9.088;2023-03-01T15:46:40;17.70;;;12.13;;
8183;SDS011;4133;48.752;9.088;2023-03-01T15:49:44;15.30;;;12.07;;
8183;SDS011;4133;48.752;9.088;2023-03-01T15:52:03;17.40;;;12.33;;
8183;SDS011;4133;48.752;9.088;2023-03-01T15:54:29;16.83;;;12.23;;
8183;SDS011;4133;48.752;9.088;2023-03-01T15:56:55;16.13;;;12.40;;
8183;SDS011;4133;48.752;9.088;2023-03-01T15:59:22;16.47;;;12.40;;
8183;SDS011;4133;48.752;9.088;2023-03-01T16:01:48;18.83;;;12.37;;
8183;SDS011;4133;48.752;9.088;2023-03-01T16:04:15;17.50;;;12.27;;
8183;SDS011;4133;48.752;9.088;2023-03-01T16:06:49;17.13;;;11.77;;
8183;SDS011;4133;48.752;9.088;2023-03-01T16:09:19;16.60;;;12.17;;
8183;SDS011;4133;48.752;9.088;2023-03-01T16:11:45;16.43;;;12.57;;
8183;SDS011;4133;48.752;9.088;2023-03-01T16:14:11;16.83;;;12.03;;
8183;SDS011;4133;48.752;9.088;2023-03-01T16:16:37;18.13;;;12.17;;
8183;SDS011;4133;48.752;9.088;2023-03-01T16:19:03;15.97;;;11.90;;
8183;SDS011;4133;48.752;9.088;2023-03-01T16:21:28;16.37;;;12.13;;
8183;SDS011;4133;48.752;9.088;2023-03-01T16:23:55;17.57;;;12.03;;
8183;SDS011;4133;48.752;9.088;2023-03-01T16:26:21;15.90;;;12.23;;
8183;SDS011;4133;48.752;9.088;2023-03-01T16:28:47;16.60;;;11.83;;
8183;SDS011;4133;48.752;9.088;2023-03-01T16:31:16;17.80;;;11.23;;
8183;SDS011;4133;48.752;9.088;2023-03-01T16:33:46;16.40;;;11.83;;
8183;SDS011;4133;48.752;9.088;2023-03-01T16:38:44;18.67;;;11.60;;
8183;SDS011;4133;48.752;9.088;2023-03-01T16:41:14;15.47;;;11.33;;
8183;SDS011;4133;48.752;9.088;2023-03-01T16:43:41;18.20;;;12.13;;
8183;SDS011;4133;48.752;9.088;2023-03-01T16:46:18;16.73;;;11.33;;
8183;SDS011;4133;48.752;9.088;2023-03-01T16:48:45;19.03;;;11.40;;
8183;SDS011;4133;48.752;9.088;2023-03-01T16:51:11;16.77;;;11.17;;
8183;SDS011;4133;48.752;9.088;2023-03-01T16:53:37;16.43;;;11.87;;
8183;SDS011;4133;48.752;9.088;2023-03-01T16:56:06;14.90;;;11.30;;
8183;SDS011;4133;48.752;9.088;2023-03-01T16:58:33;16.00;;;11.70;;
8183;SDS011;4133;48.752;9.088;2023-03-01T17:01:05;18.07;;;11.37;;
8183;SDS011;4133;48.752;9.088;2023-03-01T17:03:32;17.40;;;12.37;;
8183;SDS011;4133;48.752;9.088;2023-03-01T17:06:00;16.70;;;11.50;;
8183;SDS011;4133;48.752;9.088;2023-03-01T17:08:26;16.47;;;11.67;;
8183;SDS011;4133;48.752;9.088;2023-03-01T17:10:52;15.60;;;11.80;;
8183;SDS011;4133;48.752;9.088;2023-03-01T17:13:18;16.23;;;11.77;;
8183;SDS011;4133;48.752;9.088;2023-03-01T17:15:44;17.00;;;11.67;;
8183;SDS011;4133;48.752;9.088;2023-03-01T17:18:10;17.83;;;11.13;;
8183;SDS011;4133;48.752;9.088;2023-03-01T17:20:36;16.97;;;11.17;;
8183;SDS011;4133;48.752;9.088;2023-03-01T17:23:03;14.63;;;11.20;;
8183;SDS011;4133;48.752;9.088;2023-03-01T17:25:29;16.47;;;11.40;;
8183;SDS011;4133;48.752;9.088;2023-03-01T17:27:55;19.40;;;11.40;;
8183;SDS011;4133;48.752;9.088;2023-03-01T17:30:21;21.17;;;11.60;;
8183;SDS011;4133;48.752;9.088;2023-03-01T17:32:47;16.87;;;11.63;;
8183;SDS011;4133;48.752;9.088;2023-03-01T17:38:01;15.33;;;10.93;;
8183;SDS011;4133;48.752;9.088;2023-03-01T17:40:27;18.53;;;12.00;;
8183;SDS011;4133;48.752;9.088;2023-03-01T17:42:53;20.20;;;11.77;;
8183;SDS011;4133;48.752;9.088;2023-03-01T17:45:19;16.27;;;10.97;;
8183;SDS011;4133;48.752;9.088;2023-03-01T17:47:45;18.57;;;11.40;;
8183;SDS011;4133;48.752;9.088;2023-03-01T17:50:11;18.87;;;11.17;;
8183;SDS011;4133;48.752;9.088;2023-03-01T17:52:37;16.80;;;11.03;;
8183;SDS011;4133;48.752;9.088;2023-03-01T17:55:03;17.43;;;11.10;;
8183;SDS011;4133;48.752;9.088;2023-03-01T17:57:29;16.50;;;11.10;;